createdAt,value
2019-01-29T00:00:26.504Z,993.23
2019-01-29T00:01:26.464Z,993.26
2019-01-29T00:02:26.431Z,993.27
2019-01-29T00:03:26.438Z,993.29
2019-01-29T00:04:26.406Z,993.26
2019-01-29T00:05:26.329Z,993.30
2019-01-29T00:06:26.296Z,993.30
2019-01-29T00:07:26.305Z,993.29
2019-01-29T00:08:26.219Z,993.27
2019-01-29T00:09:26.228Z,993.31
2019-01-29T00:10:26.172Z,993.34
2019-01-29T00:11:26.108Z,993.36
2019-01-29T00:12:26.144Z,993.38
2019-01-29T00:13:26.035Z,993.37
2019-01-29T00:14:26.053Z,993.37
2019-01-29T00:15:25.964Z,993.37
2019-01-29T00:16:25.944Z,993.43
2019-01-29T00:17:25.899Z,993.43
2019-01-29T00:18:25.926Z,993.47
2019-01-29T00:19:25.867Z,993.50
2019-01-29T00:20:25.788Z,993.45
2019-01-29T00:21:25.750Z,993.51
2019-01-29T00:22:33.232Z,993.51
2019-01-29T00:23:25.677Z,993.55
2019-01-29T00:24:25.681Z,993.59
2019-01-29T00:25:25.604Z,993.52
2019-01-29T00:26:25.568Z,993.57
2019-01-29T00:27:25.576Z,993.55
2019-01-29T00:28:25.500Z,993.59
2019-01-29T00:29:25.463Z,993.64
2019-01-29T00:30:25.427Z,993.60
2019-01-29T00:31:25.390Z,993.58
2019-01-29T00:32:25.403Z,993.64
2019-01-29T00:33:25.317Z,993.62
2019-01-29T00:34:25.284Z,993.63
2019-01-29T00:35:25.248Z,993.70
2019-01-29T00:36:25.322Z,993.74
2019-01-29T00:37:25.172Z,993.74
2019-01-29T00:38:25.137Z,993.81
2019-01-29T00:39:25.132Z,993.77
2019-01-29T00:40:25.076Z,993.82
2019-01-29T00:41:25.068Z,993.87
2019-01-29T00:42:25.052Z,993.92
2019-01-29T00:43:24.960Z,993.91
2019-01-29T00:44:24.919Z,993.93
2019-01-29T00:45:24.904Z,993.95
2019-01-29T00:46:24.849Z,993.94
2019-01-29T00:47:24.883Z,994.01
2019-01-29T00:48:24.778Z,993.98
2019-01-29T00:49:24.741Z,993.98
2019-01-29T00:50:24.705Z,994.02
2019-01-29T00:51:24.667Z,994.01
2019-01-29T00:52:24.684Z,994.08
2019-01-29T00:53:24.640Z,994.07
2019-01-29T00:54:24.562Z,994.10
2019-01-29T00:55:24.527Z,994.10
2019-01-29T00:56:24.490Z,994.05
2019-01-29T00:57:24.461Z,994.14
2019-01-29T00:58:24.475Z,994.17
2019-01-29T00:59:24.379Z,994.15
2019-01-29T01:00:24.351Z,994.16
2019-01-29T01:01:24.323Z,994.16
2019-01-29T01:02:25.024Z,994.18
2019-01-29T01:03:24.297Z,994.25
2019-01-29T01:04:24.359Z,994.26
2019-01-29T01:05:24.208Z,994.27
2019-01-29T01:06:31.520Z,994.29
2019-01-29T01:07:24.136Z,994.30
2019-01-29T01:08:24.070Z,994.29
2019-01-29T01:09:24.031Z,994.27
2019-01-29T01:10:23.983Z,994.41
2019-01-29T01:11:24.001Z,994.34
2019-01-29T01:12:23.911Z,994.39
2019-01-29T01:13:23.874Z,994.40
2019-01-29T01:14:23.843Z,994.38
2019-01-29T01:15:23.812Z,994.42
2019-01-29T01:16:23.821Z,994.46
2019-01-29T01:17:23.727Z,994.49
2019-01-29T01:18:23.692Z,994.56
2019-01-29T01:19:23.673Z,994.50
2019-01-29T01:20:23.623Z,994.54
2019-01-29T01:21:23.645Z,994.54
2019-01-29T01:22:23.554Z,994.55
2019-01-29T01:23:23.514Z,994.54
2019-01-29T01:24:23.478Z,994.59
2019-01-29T01:25:23.442Z,994.60
2019-01-29T01:26:23.451Z,994.64
2019-01-29T01:27:23.374Z,994.68
2019-01-29T01:28:23.334Z,994.65
2019-01-29T01:29:23.301Z,994.66
2019-01-29T01:30:23.262Z,994.70
2019-01-29T01:31:23.267Z,994.65
2019-01-29T01:32:23.189Z,994.66
2019-01-29T01:33:23.196Z,994.72
2019-01-29T01:34:23.119Z,994.78
2019-01-29T01:35:23.083Z,994.71
2019-01-29T01:36:23.045Z,994.78
2019-01-29T01:37:23.008Z,994.79
2019-01-29T01:38:23.021Z,994.79
2019-01-29T01:39:22.937Z,994.84
2019-01-29T01:40:22.975Z,994.84
2019-01-29T01:41:22.910Z,994.86
2019-01-29T01:42:22.871Z,994.87
2019-01-29T01:43:22.792Z,994.94
2019-01-29T01:44:22.765Z,994.96
2019-01-29T01:45:22.724Z,994.97
2019-01-29T01:46:22.732Z,995.01
2019-01-29T01:47:22.703Z,995.01
2019-01-29T01:48:22.619Z,994.99
2019-01-29T01:49:22.579Z,995.11
2019-01-29T01:50:22.546Z,995.16
2019-01-29T01:51:22.562Z,995.15
2019-01-29T01:52:22.476Z,995.14
2019-01-29T01:53:22.434Z,995.20
2019-01-29T01:54:22.408Z,995.18
2019-01-29T01:55:22.362Z,995.19
2019-01-29T01:56:22.379Z,995.35
2019-01-29T01:57:22.341Z,995.28
2019-01-29T01:58:22.254Z,995.31
2019-01-29T01:59:22.220Z,995.30
2019-01-29T02:00:22.190Z,995.35
2019-01-29T02:01:22.146Z,995.40
2019-01-29T02:02:22.156Z,995.39
2019-01-29T02:03:22.079Z,995.33
2019-01-29T02:04:22.036Z,995.41
2019-01-29T02:05:22.013Z,995.46
2019-01-29T02:06:21.968Z,995.49
2019-01-29T02:07:21.969Z,995.46
2019-01-29T02:08:21.935Z,995.56
2019-01-29T02:09:21.919Z,995.55
2019-01-29T02:10:21.825Z,995.56
2019-01-29T02:11:21.784Z,995.59
2019-01-29T02:12:21.795Z,995.57
2019-01-29T02:13:21.763Z,995.61
2019-01-29T02:14:21.683Z,995.64
2019-01-29T02:15:21.651Z,995.69
2019-01-29T02:16:21.628Z,995.65
2019-01-29T02:17:21.569Z,995.68
2019-01-29T02:18:21.589Z,995.75
2019-01-29T02:19:21.494Z,995.77
2019-01-29T02:20:21.472Z,995.82
2019-01-29T02:21:21.429Z,995.82
2019-01-29T02:22:21.385Z,995.82
2019-01-29T02:23:21.388Z,995.91
2019-01-29T02:24:21.359Z,995.83
2019-01-29T02:25:21.316Z,995.92
2019-01-29T02:26:21.266Z,995.96
2019-01-29T02:27:21.202Z,995.92
2019-01-29T02:28:21.169Z,995.92
2019-01-29T02:29:21.177Z,995.95
2019-01-29T02:30:21.162Z,996.02
2019-01-29T02:31:21.062Z,995.99
2019-01-29T02:32:21.020Z,996.04
2019-01-29T02:33:20.994Z,996.07
2019-01-29T02:34:20.947Z,996.09
2019-01-29T02:35:20.975Z,996.11
2019-01-29T02:36:20.874Z,996.09
2019-01-29T02:37:20.887Z,996.13
2019-01-29T02:38:20.806Z,996.13
2019-01-29T02:39:20.773Z,996.14
2019-01-29T02:40:20.775Z,996.14
2019-01-29T02:41:20.704Z,996.15
2019-01-29T02:42:20.717Z,996.17
2019-01-29T02:43:20.631Z,996.16
2019-01-29T02:44:20.583Z,996.17
2019-01-29T02:45:20.548Z,996.20
2019-01-29T02:46:20.556Z,996.19
2019-01-29T02:47:20.528Z,996.24
2019-01-29T02:48:20.439Z,996.21
2019-01-29T02:49:20.404Z,996.26
2019-01-29T02:50:20.373Z,996.22
2019-01-29T02:51:20.326Z,996.20
2019-01-29T02:52:20.335Z,996.23
2019-01-29T02:53:20.299Z,996.26
2019-01-29T02:54:21.119Z,996.29
2019-01-29T02:55:20.265Z,996.31
2019-01-29T02:56:20.143Z,996.32
2019-01-29T02:57:20.109Z,996.33
2019-01-29T02:58:20.115Z,996.33
2019-01-29T02:59:20.041Z,996.34
2019-01-29T03:00:20.044Z,996.36
2019-01-29T03:01:19.964Z,996.36
2019-01-29T03:02:19.923Z,996.47
2019-01-29T03:03:19.945Z,996.38
2019-01-29T03:04:19.861Z,996.47
2019-01-29T03:05:19.812Z,996.52
2019-01-29T03:06:19.775Z,996.56
2019-01-29T03:07:19.743Z,996.55
2019-01-29T03:08:19.773Z,996.51
2019-01-29T03:09:19.665Z,996.52
2019-01-29T03:10:19.636Z,996.54
2019-01-29T03:11:19.595Z,996.53
2019-01-29T03:12:19.555Z,996.53
2019-01-29T03:13:19.561Z,996.54
2019-01-29T03:14:19.482Z,996.62
2019-01-29T03:15:19.494Z,996.55
2019-01-29T03:16:19.410Z,996.59
2019-01-29T03:17:19.377Z,996.61
2019-01-29T03:18:19.386Z,996.63
2019-01-29T03:19:19.298Z,996.67
2019-01-29T03:20:19.266Z,996.67
2019-01-29T03:21:19.264Z,996.69
2019-01-29T03:22:19.254Z,996.68
2019-01-29T03:23:27.316Z,996.70
2019-01-29T03:24:19.117Z,996.67
2019-01-29T03:25:19.082Z,996.77
2019-01-29T03:26:19.042Z,996.74
2019-01-29T03:27:19.050Z,996.74
2019-01-29T03:28:18.965Z,996.75
2019-01-29T03:29:18.976Z,996.85
2019-01-29T03:30:18.890Z,996.81
2019-01-29T03:31:18.873Z,996.88
2019-01-29T03:32:18.829Z,996.82
2019-01-29T03:33:18.861Z,996.83
2019-01-29T03:34:18.745Z,996.87
2019-01-29T03:35:18.704Z,996.82
2019-01-29T03:36:18.673Z,996.90
2019-01-29T03:37:18.639Z,996.98
2019-01-29T03:38:18.646Z,996.93
2019-01-29T03:39:18.565Z,996.90
2019-01-29T03:40:18.528Z,996.97
2019-01-29T03:41:18.532Z,996.97
2019-01-29T03:42:18.444Z,997.00
2019-01-29T03:43:18.411Z,997.08
2019-01-29T03:44:18.379Z,997.06
2019-01-29T03:45:18.343Z,997.05
2019-01-29T03:46:18.339Z,997.06
2019-01-29T03:47:18.263Z,997.13
2019-01-29T03:48:18.225Z,997.15
2019-01-29T03:49:18.247Z,997.15
2019-01-29T03:50:18.152Z,997.20
2019-01-29T03:51:18.114Z,997.21
2019-01-29T03:52:18.076Z,997.23
2019-01-29T03:53:18.045Z,997.28
2019-01-29T03:54:18.124Z,997.29
2019-01-29T03:55:17.974Z,997.26
2019-01-29T03:56:17.931Z,997.33
2019-01-29T03:57:17.893Z,997.30
2019-01-29T03:58:17.921Z,997.37
2019-01-29T03:59:17.831Z,997.41
2019-01-29T04:00:17.791Z,997.40
2019-01-29T04:01:17.745Z,997.42
2019-01-29T04:02:17.708Z,997.50
2019-01-29T04:03:17.720Z,997.44
2019-01-29T04:04:17.635Z,997.44
2019-01-29T04:05:17.607Z,997.45
2019-01-29T04:06:17.618Z,997.52
2019-01-29T04:07:17.530Z,997.50
2019-01-29T04:08:17.497Z,997.53
2019-01-29T04:09:17.453Z,997.53
2019-01-29T04:10:17.416Z,997.56
2019-01-29T04:11:17.433Z,997.61
2019-01-29T04:12:17.345Z,997.61
2019-01-29T04:13:17.310Z,997.67
2019-01-29T04:14:17.272Z,997.63
2019-01-29T04:15:17.234Z,997.64
2019-01-29T04:16:17.242Z,997.67
2019-01-29T04:17:17.152Z,997.68
2019-01-29T04:18:17.117Z,997.71
2019-01-29T04:19:17.090Z,997.70
2019-01-29T04:20:17.094Z,997.74
2019-01-29T04:21:17.008Z,997.86
2019-01-29T04:22:17.029Z,997.73
2019-01-29T04:23:17.015Z,997.75
2019-01-29T04:24:16.897Z,997.76
2019-01-29T04:25:16.866Z,997.83
2019-01-29T04:26:16.826Z,997.81
2019-01-29T04:27:16.827Z,997.94
2019-01-29T04:28:16.749Z,997.88
2019-01-29T04:29:16.714Z,997.85
2019-01-29T04:30:16.672Z,997.86
2019-01-29T04:31:16.641Z,997.85
2019-01-29T04:32:16.643Z,997.86
2019-01-29T04:33:16.563Z,997.87
2019-01-29T04:34:16.526Z,997.87
2019-01-29T04:35:16.489Z,997.91
2019-01-29T04:36:16.452Z,997.87
2019-01-29T04:37:16.455Z,997.85
2019-01-29T04:38:16.379Z,997.92
2019-01-29T04:39:16.342Z,997.87
2019-01-29T04:40:16.323Z,997.94
2019-01-29T04:41:16.264Z,997.96
2019-01-29T04:42:16.281Z,997.97
2019-01-29T04:43:16.241Z,997.96
2019-01-29T04:44:16.153Z,998.03
2019-01-29T04:45:16.165Z,997.96
2019-01-29T04:46:16.097Z,998.00
2019-01-29T04:47:16.046Z,997.98
2019-01-29T04:48:16.010Z,997.97
2019-01-29T04:49:15.973Z,998.00
2019-01-29T04:50:15.990Z,997.98
2019-01-29T04:51:15.952Z,998.06
2019-01-29T04:52:16.627Z,998.03
2019-01-29T04:53:15.863Z,998.03
2019-01-29T04:54:15.787Z,998.05
2019-01-29T04:55:15.792Z,998.07
2019-01-29T04:56:15.714Z,998.03
2019-01-29T04:57:15.680Z,998.06
2019-01-29T04:58:15.677Z,998.10
2019-01-29T04:59:15.596Z,998.12
2019-01-29T05:00:15.568Z,998.13
2019-01-29T05:01:15.525Z,998.16
2019-01-29T05:02:15.532Z,998.15
2019-01-29T05:03:15.495Z,998.16
2019-01-29T05:04:15.420Z,998.19
2019-01-29T05:05:15.395Z,998.16
2019-01-29T05:06:15.382Z,998.18
2019-01-29T05:07:15.313Z,998.20
2019-01-29T05:08:15.279Z,998.26
2019-01-29T05:09:15.233Z,998.25
2019-01-29T05:10:15.191Z,998.24
2019-01-29T05:11:15.204Z,998.22
2019-01-29T05:12:15.114Z,998.26
2019-01-29T05:13:15.126Z,998.27
2019-01-29T05:14:15.037Z,998.31
2019-01-29T05:15:15.006Z,998.26
2019-01-29T05:16:15.107Z,998.29
2019-01-29T05:17:15.056Z,998.34
2019-01-29T05:18:14.939Z,998.33
2019-01-29T05:19:15.534Z,998.37
2019-01-29T05:20:14.870Z,998.31
2019-01-29T05:21:14.781Z,998.36
2019-01-29T05:22:15.706Z,998.40
2019-01-29T05:23:17.093Z,998.40
2019-01-29T05:24:17.185Z,998.40
2019-01-29T05:25:14.790Z,998.43
2019-01-29T05:26:15.548Z,998.47
2019-01-29T05:27:14.665Z,998.47
2019-01-29T05:28:14.509Z,998.47
2019-01-29T05:29:14.534Z,998.48
2019-01-29T05:30:14.432Z,998.52
2019-01-29T05:31:14.395Z,998.50
2019-01-29T05:32:14.367Z,998.53
2019-01-29T05:33:14.320Z,998.56
2019-01-29T05:34:14.342Z,998.56
2019-01-29T05:35:14.251Z,998.60
2019-01-29T05:36:14.207Z,998.58
2019-01-29T05:37:14.213Z,998.62
2019-01-29T05:38:14.131Z,998.62
2019-01-29T05:39:14.137Z,998.67
2019-01-29T05:40:14.118Z,998.71
2019-01-29T05:41:14.020Z,998.69
2019-01-29T05:42:13.980Z,998.72
2019-01-29T05:43:13.939Z,998.72
2019-01-29T05:44:13.912Z,998.75
2019-01-29T05:45:13.913Z,998.74
2019-01-29T05:46:13.831Z,998.75
2019-01-29T05:47:13.791Z,998.77
2019-01-29T05:48:13.754Z,998.79
2019-01-29T05:49:13.774Z,998.78
2019-01-29T05:50:13.723Z,998.78
2019-01-29T05:51:13.648Z,998.81
2019-01-29T05:52:13.607Z,998.85
2019-01-29T05:53:13.561Z,998.85
2019-01-29T05:54:16.472Z,998.88
2019-01-29T05:55:13.489Z,998.88
2019-01-29T05:56:14.135Z,998.90
2019-01-29T05:57:13.413Z,998.91
2019-01-29T05:58:13.429Z,998.91
2019-01-29T05:59:13.335Z,998.97
2019-01-29T06:00:13.299Z,998.98
2019-01-29T06:01:13.258Z,998.97
2019-01-29T06:02:13.219Z,998.99
2019-01-29T06:03:13.250Z,999.00
2019-01-29T06:04:13.148Z,999.01
2019-01-29T06:05:13.110Z,998.99
2019-01-29T06:06:13.132Z,999.01
2019-01-29T06:07:13.032Z,999.03
2019-01-29T06:08:12.993Z,999.04
2019-01-29T06:09:12.953Z,999.07
2019-01-29T06:10:13.009Z,999.06
2019-01-29T06:11:12.926Z,999.06
2019-01-29T06:12:12.879Z,999.13
2019-01-29T06:13:12.815Z,999.15
2019-01-29T06:14:12.765Z,999.16
2019-01-29T06:15:12.772Z,999.14
2019-01-29T06:16:12.696Z,999.18
2019-01-29T06:17:12.702Z,999.17
2019-01-29T06:18:12.617Z,999.18
2019-01-29T06:19:12.576Z,999.21
2019-01-29T06:20:12.547Z,999.19
2019-01-29T06:21:12.555Z,999.20
2019-01-29T06:22:12.463Z,999.17
2019-01-29T06:23:12.435Z,999.22
2019-01-29T06:24:12.439Z,999.26
2019-01-29T06:25:12.354Z,999.29
2019-01-29T06:26:12.376Z,999.29
2019-01-29T06:27:12.277Z,999.29
2019-01-29T06:28:12.249Z,999.37
2019-01-29T06:29:12.203Z,999.34
2019-01-29T06:30:12.175Z,999.41
2019-01-29T06:31:12.189Z,999.40
2019-01-29T06:32:12.170Z,999.47
2019-01-29T06:33:12.057Z,999.47
2019-01-29T06:34:12.037Z,999.47
2019-01-29T06:35:11.991Z,999.55
2019-01-29T06:36:12.538Z,999.56
2019-01-29T06:37:11.903Z,999.57
2019-01-29T06:38:11.890Z,999.64
2019-01-29T06:39:11.897Z,999.63
2019-01-29T06:40:11.799Z,999.64
2019-01-29T06:41:11.759Z,999.60
2019-01-29T06:42:11.725Z,999.68
2019-01-29T06:43:11.734Z,999.66
2019-01-29T06:44:11.694Z,999.69
2019-01-29T06:45:11.612Z,999.68
2019-01-29T06:46:11.580Z,999.70
2019-01-29T06:47:11.536Z,999.71
2019-01-29T06:48:11.561Z,999.70
2019-01-29T06:49:11.471Z,999.72
2019-01-29T06:50:11.428Z,999.68
2019-01-29T06:51:11.389Z,999.70
2019-01-29T06:52:11.366Z,999.73
2019-01-29T06:53:11.359Z,999.74
2019-01-29T06:54:11.287Z,999.76
2019-01-29T06:55:11.247Z,999.80
2019-01-29T06:56:11.211Z,999.80
2019-01-29T06:57:11.169Z,999.80
2019-01-29T06:58:11.175Z,999.83
2019-01-29T06:59:11.155Z,999.85
2019-01-29T07:00:11.063Z,999.89
2019-01-29T07:01:11.038Z,999.91
2019-01-29T07:02:10.986Z,999.92
2019-01-29T07:03:10.951Z,999.95
2019-01-29T07:04:10.964Z,999.94
2019-01-29T07:05:10.879Z,999.99
2019-01-29T07:06:11.635Z,999.97
2019-01-29T07:07:10.830Z,1000.02
2019-01-29T07:08:10.774Z,1000.01
2019-01-29T07:09:10.772Z,999.97
2019-01-29T07:10:10.694Z,1000.03
2019-01-29T07:11:10.656Z,999.99
2019-01-29T07:12:10.661Z,1000.08
2019-01-29T07:13:10.634Z,1000.07
2019-01-29T07:14:10.549Z,1000.09
2019-01-29T07:15:10.513Z,1000.11
2019-01-29T07:16:12.526Z,1000.09
2019-01-29T07:17:10.442Z,1000.16
2019-01-29T07:18:10.469Z,1000.13
2019-01-29T07:19:10.364Z,1000.11
2019-01-29T07:20:10.342Z,1000.11
2019-01-29T07:21:10.296Z,1000.14
2019-01-29T07:22:10.261Z,1000.19
2019-01-29T07:23:10.260Z,1000.23
2019-01-29T07:24:10.230Z,1000.21
2019-01-29T07:25:10.145Z,1000.25
2019-01-29T07:26:10.111Z,1000.20
2019-01-29T07:27:10.116Z,1000.26
2019-01-29T07:28:10.051Z,1000.22
2019-01-29T07:29:10.069Z,1000.23
2019-01-29T07:30:09.964Z,1000.25
2019-01-29T07:31:09.942Z,1000.27
2019-01-29T07:32:09.898Z,1000.25
2019-01-29T07:33:09.879Z,1000.27
2019-01-29T07:34:09.881Z,1000.26
2019-01-29T07:35:09.785Z,1000.25
2019-01-29T07:36:09.746Z,1000.26
2019-01-29T07:37:09.715Z,1000.29
2019-01-29T07:38:09.679Z,1000.32
2019-01-29T07:39:09.694Z,1000.30
2019-01-29T07:40:09.633Z,1000.31
2019-01-29T07:41:10.541Z,1000.30
2019-01-29T07:42:09.581Z,1000.34
2019-01-29T07:43:09.494Z,1000.29
2019-01-29T07:44:09.460Z,1000.31
2019-01-29T07:45:09.421Z,1000.32
2019-01-29T07:46:09.390Z,1000.34
2019-01-29T07:47:09.392Z,1000.32
2019-01-29T07:48:09.320Z,1000.28
2019-01-29T07:49:09.289Z,1000.29
2019-01-29T07:50:09.258Z,1000.32
2019-01-29T07:51:09.207Z,1000.32
2019-01-29T07:52:09.219Z,1000.29
2019-01-29T07:53:09.146Z,1000.29
2019-01-29T07:54:09.153Z,1000.26
2019-01-29T07:55:09.064Z,1000.30
2019-01-29T07:56:09.030Z,1000.33
2019-01-29T07:57:09.062Z,1000.33
2019-01-29T07:58:08.952Z,1000.31
2019-01-29T07:59:08.966Z,1000.34
2019-01-29T08:00:08.886Z,1000.35
2019-01-29T08:01:08.850Z,1000.34
2019-01-29T08:02:08.816Z,1000.35
2019-01-29T08:03:08.779Z,1000.39
2019-01-29T08:04:08.785Z,1000.41
2019-01-29T08:05:08.750Z,1000.44
2019-01-29T08:06:08.670Z,1000.48
2019-01-29T08:07:08.635Z,1000.48
2019-01-29T08:08:08.660Z,1000.48
2019-01-29T08:09:08.598Z,1000.46
2019-01-29T08:10:08.527Z,1000.48
2019-01-29T08:11:08.491Z,1000.49
2019-01-29T08:12:08.518Z,1000.48
2019-01-29T08:13:08.417Z,1000.50
2019-01-29T08:14:08.388Z,1000.53
2019-01-29T08:15:08.351Z,1000.51
2019-01-29T08:16:08.317Z,1000.49
2019-01-29T08:17:08.323Z,1000.51
2019-01-29T08:18:08.253Z,1000.56
2019-01-29T08:19:08.218Z,1000.57
2019-01-29T08:20:08.225Z,1000.57
2019-01-29T08:21:08.138Z,1000.59
2019-01-29T08:22:08.103Z,1000.62
2019-01-29T08:23:08.110Z,1000.62
2019-01-29T08:24:08.047Z,1000.64
2019-01-29T08:25:07.996Z,1000.65
2019-01-29T08:26:07.959Z,1000.66
2019-01-29T08:27:07.975Z,1000.68
2019-01-29T08:28:07.890Z,1000.73
2019-01-29T08:29:07.857Z,1000.69
2019-01-29T08:30:07.867Z,1000.69
2019-01-29T08:31:07.795Z,1000.67
2019-01-29T08:32:07.793Z,1000.69
2019-01-29T08:33:07.713Z,1000.71
2019-01-29T08:34:07.682Z,1000.72
2019-01-29T08:35:07.688Z,1000.74
2019-01-29T08:36:07.613Z,1000.75
2019-01-29T08:37:07.631Z,1000.76
2019-01-29T08:38:07.612Z,1000.80
2019-01-29T08:39:07.508Z,1000.81
2019-01-29T08:40:07.469Z,1000.79
2019-01-29T08:41:07.445Z,1000.83
2019-01-29T08:42:07.458Z,1000.77
2019-01-29T08:43:07.366Z,1000.82
2019-01-29T08:44:07.342Z,1000.79
2019-01-29T08:45:07.300Z,1000.82
2019-01-29T08:46:07.263Z,1000.85
2019-01-29T08:47:07.273Z,1000.88
2019-01-29T08:48:07.201Z,1000.86
2019-01-29T08:49:07.160Z,1000.88
2019-01-29T08:50:07.124Z,1000.89
2019-01-29T08:51:07.097Z,1000.93
2019-01-29T08:52:07.102Z,1000.95
2019-01-29T08:53:07.020Z,1000.98
2019-01-29T08:54:07.031Z,1001.00
2019-01-29T08:55:10.785Z,1001.02
2019-01-29T08:56:06.914Z,1001.00
2019-01-29T08:57:08.926Z,1001.01
2019-01-29T08:58:06.850Z,1001.10
2019-01-29T08:59:06.813Z,1001.07
2019-01-29T09:00:06.782Z,1001.03
2019-01-29T09:01:08.717Z,1001.03
2019-01-29T09:02:08.151Z,1001.05
2019-01-29T09:03:06.722Z,1001.04
2019-01-29T09:04:06.651Z,1001.03
2019-01-29T09:05:06.609Z,1001.05
2019-01-29T09:06:06.577Z,1001.06
2019-01-29T09:07:06.537Z,1001.04
2019-01-29T09:08:06.571Z,1001.07
2019-01-29T09:09:06.505Z,1001.09
2019-01-29T09:10:06.434Z,1001.07
2019-01-29T09:11:06.398Z,1001.00
2019-01-29T09:12:06.367Z,1001.01
2019-01-29T09:13:06.326Z,1001.04
2019-01-29T09:14:06.342Z,1001.04
2019-01-29T09:15:06.256Z,1001.04
2019-01-29T09:16:06.272Z,1001.07
2019-01-29T09:17:06.195Z,1001.07
2019-01-29T09:18:06.162Z,1001.09
2019-01-29T09:19:06.126Z,1001.09
2019-01-29T09:20:06.088Z,1001.10
2019-01-29T09:21:06.102Z,1001.10
2019-01-29T09:22:06.035Z,1001.13
2019-01-29T09:23:05.986Z,1001.14
2019-01-29T09:24:05.951Z,1001.16
2019-01-29T09:25:05.943Z,1001.16
2019-01-29T09:26:05.929Z,1001.13
2019-01-29T09:27:05.854Z,1001.10
2019-01-29T09:28:05.858Z,1001.14
2019-01-29T09:29:05.780Z,1001.11
2019-01-29T09:30:05.756Z,1001.19
2019-01-29T09:31:05.713Z,1001.16
2019-01-29T09:32:05.727Z,1001.17
2019-01-29T09:33:05.650Z,1001.22
2019-01-29T09:34:05.608Z,1001.20
2019-01-29T09:35:05.636Z,1001.19
2019-01-29T09:36:05.540Z,1001.20
2019-01-29T09:37:05.527Z,1001.20
2019-01-29T09:38:05.476Z,1001.25
2019-01-29T09:39:05.436Z,1001.19
2019-01-29T09:40:05.442Z,1001.21
2019-01-29T09:41:05.449Z,1001.26
2019-01-29T09:42:05.334Z,1001.22
2019-01-29T09:43:05.295Z,1001.22
2019-01-29T09:44:05.262Z,1001.27
2019-01-29T09:45:05.224Z,1001.30
2019-01-29T09:46:05.227Z,1001.29
2019-01-29T09:47:05.223Z,1001.30
2019-01-29T09:48:05.170Z,1001.33
2019-01-29T09:49:05.089Z,1001.32
2019-01-29T09:50:05.052Z,1001.37
2019-01-29T09:51:05.017Z,1001.33
2019-01-29T09:52:05.043Z,1001.35
2019-01-29T09:53:04.952Z,1001.33
2019-01-29T09:54:04.914Z,1001.33
2019-01-29T09:55:04.945Z,1001.32
2019-01-29T09:56:04.910Z,1001.35
2019-01-29T09:57:04.818Z,1001.33
2019-01-29T09:58:04.776Z,1001.33
2019-01-29T09:59:04.741Z,1001.34
2019-01-29T10:00:04.715Z,1001.31
2019-01-29T10:01:04.713Z,1001.39
2019-01-29T10:02:04.641Z,1001.41
2019-01-29T10:03:04.725Z,1001.38
2019-01-29T10:04:04.571Z,1001.37
2019-01-29T10:05:04.536Z,1001.42
2019-01-29T10:06:04.504Z,1001.39
2019-01-29T10:07:04.480Z,1001.38
2019-01-29T10:08:04.490Z,1001.38
2019-01-29T10:09:04.402Z,1001.37
2019-01-29T10:10:04.366Z,1001.36
2019-01-29T10:11:04.333Z,1001.38
2019-01-29T10:12:04.346Z,1001.36
2019-01-29T10:13:04.273Z,1001.37
2019-01-29T10:14:04.238Z,1001.41
2019-01-29T10:15:04.200Z,1001.40
2019-01-29T10:16:04.162Z,1001.40
2019-01-29T10:17:04.170Z,1001.40
2019-01-29T10:18:04.098Z,1001.39
2019-01-29T10:19:04.065Z,1001.33
2019-01-29T10:20:04.038Z,1001.39
2019-01-29T10:21:03.993Z,1001.36
2019-01-29T10:22:03.964Z,1001.29
2019-01-29T10:23:03.976Z,1001.35
2019-01-29T10:24:03.897Z,1001.34
2019-01-29T10:25:03.864Z,1001.30
2019-01-29T10:26:03.826Z,1001.27
2019-01-29T10:27:03.837Z,1001.34
2019-01-29T10:28:03.758Z,1001.31
2019-01-29T10:29:03.728Z,1001.32
2019-01-29T10:30:03.689Z,1001.30
2019-01-29T10:31:03.658Z,1001.31
2019-01-29T10:32:03.687Z,1001.27
2019-01-29T10:33:03.585Z,1001.29
2019-01-29T10:34:03.561Z,1001.30
2019-01-29T10:35:03.524Z,1001.32
2019-01-29T10:36:03.485Z,1001.32
2019-01-29T10:37:04.069Z,1001.30
2019-01-29T10:38:03.429Z,1001.29
2019-01-29T10:39:03.395Z,1001.33
2019-01-29T10:40:03.402Z,1001.32
2019-01-29T10:41:03.334Z,1001.32
2019-01-29T10:42:03.291Z,1001.34
2019-01-29T10:43:03.269Z,1001.32
2019-01-29T10:44:03.224Z,1001.33
2019-01-29T10:45:03.236Z,1001.37
2019-01-29T10:46:03.206Z,1001.33
2019-01-29T10:47:03.119Z,1001.30
2019-01-29T10:48:03.088Z,1001.34
2019-01-29T10:49:03.102Z,1001.32
2019-01-29T10:50:03.030Z,1001.31
2019-01-29T10:51:02.988Z,1001.31
2019-01-29T10:52:02.985Z,1001.35
2019-01-29T10:53:02.924Z,1001.32
2019-01-29T10:54:02.930Z,1001.33
2019-01-29T10:55:02.854Z,1001.34
2019-01-29T10:56:02.860Z,1001.31
2019-01-29T10:57:02.789Z,1001.38
2019-01-29T10:58:02.752Z,1001.31
2019-01-29T10:59:02.731Z,1001.33
2019-01-29T11:00:02.745Z,1001.33
2019-01-29T11:01:02.648Z,1001.28
2019-01-29T11:02:02.643Z,1001.32
2019-01-29T11:03:02.603Z,1001.27
2019-01-29T11:04:02.552Z,1001.30
2019-01-29T11:05:02.564Z,1001.26
2019-01-29T11:06:02.524Z,1001.28
2019-01-29T11:07:02.447Z,1001.29
2019-01-29T11:08:02.421Z,1001.29
2019-01-29T11:09:02.403Z,1001.34
2019-01-29T11:10:02.347Z,1001.31
2019-01-29T11:11:02.465Z,1001.32
2019-01-29T11:12:02.313Z,1001.33
2019-01-29T11:13:02.273Z,1001.41
2019-01-29T11:14:02.241Z,1001.38
2019-01-29T11:15:02.184Z,1001.41
2019-01-29T11:16:02.202Z,1001.40
2019-01-29T11:17:02.117Z,1001.43
2019-01-29T11:18:02.118Z,1001.42
2019-01-29T11:19:03.464Z,1001.39
2019-01-29T11:20:02.019Z,1001.40
2019-01-29T11:21:01.983Z,1001.42
2019-01-29T11:22:01.997Z,1001.45
2019-01-29T11:23:01.919Z,1001.43
2019-01-29T11:24:01.924Z,1001.41
2019-01-29T11:25:01.846Z,1001.39
2019-01-29T11:26:01.810Z,1001.38
2019-01-29T11:27:01.829Z,1001.37
2019-01-29T11:28:01.752Z,1001.38
2019-01-29T11:29:01.764Z,1001.37
2019-01-29T11:30:01.677Z,1001.42
2019-01-29T11:31:01.647Z,1001.36
2019-01-29T11:32:01.610Z,1001.38
2019-01-29T11:33:01.577Z,1001.36
2019-01-29T11:34:01.604Z,1001.39
2019-01-29T11:35:01.514Z,1001.40
2019-01-29T11:36:01.478Z,1001.39
2019-01-29T11:37:01.452Z,1001.41
2019-01-29T11:38:01.408Z,1001.44
2019-01-29T11:39:01.419Z,1001.42
2019-01-29T11:40:01.343Z,1001.42
2019-01-29T11:41:01.307Z,1001.38
2019-01-29T11:42:01.280Z,1001.39
2019-01-29T11:43:01.287Z,1001.40
2019-01-29T11:44:01.210Z,1001.38
2019-01-29T11:45:01.177Z,1001.38
2019-01-29T11:46:01.214Z,1001.38
2019-01-29T11:47:01.109Z,1001.40
2019-01-29T11:48:01.078Z,1001.43
2019-01-29T11:49:02.727Z,1001.41
2019-01-29T11:50:01.010Z,1001.44
2019-01-29T11:51:00.973Z,1001.47
2019-01-29T11:52:00.987Z,1001.46
2019-01-29T11:53:00.908Z,1001.48
2019-01-29T11:54:00.871Z,1001.50
2019-01-29T11:55:00.851Z,1001.52
2019-01-29T11:56:04.648Z,1001.46
2019-01-29T11:57:00.786Z,1001.48
2019-01-29T11:58:00.737Z,1001.49
2019-01-29T11:59:00.708Z,1001.48
2019-01-29T12:00:00.670Z,1001.52
2019-01-29T12:01:00.699Z,1001.50
2019-01-29T12:02:00.613Z,1001.52
2019-01-29T12:03:00.580Z,1001.53
2019-01-29T12:04:00.551Z,1001.58
2019-01-29T12:05:00.516Z,1001.57
2019-01-29T12:06:00.522Z,1001.56
2019-01-29T12:07:00.441Z,1001.52
2019-01-29T12:08:00.409Z,1001.49
2019-01-29T12:09:00.472Z,1001.51
2019-01-29T12:10:00.372Z,1001.52
2019-01-29T12:11:00.347Z,1001.51
2019-01-29T12:12:00.337Z,1001.51
2019-01-29T12:13:02.306Z,1001.49
2019-01-29T12:14:00.215Z,1001.48
2019-01-29T12:15:00.182Z,1001.46
2019-01-29T12:16:00.146Z,1001.45
2019-01-29T12:17:00.167Z,1001.48
2019-01-29T12:18:00.080Z,1001.46